sensor_id;sensor_type;location;lat;lon;timestamp;pressure;altitude;pressure_sealevel;temperature;humidity
48204;BME280;33994;50.998;5.864;2023-03-20T00:02:43;101506.78;;;9.02;79.40
48204;BME280;33994;50.998;5.864;2023-03-20T00:05:46;101506.81;;;9.00;79.31
48204;BME280;33994;50.998;5.864;2023-03-20T00:08:51;101504.16;;;8.99;79.32
48204;BME280;33994;50.998;5.864;2023-03-20T00:11:55;101509.38;;;8.99;79.10
48204;BME280;33994;50.998;5.864;2023-03-20T00:15:16;101520.69;;;8.95;79.03
48204;BME280;33994;50.998;5.864;2023-03-20T00:18:23;101517.22;;;8.97;78.77
48204;BME280;33994;50.998;5.864;2023-03-20T00:21:26;101520.69;;;8.99;78.75
48204;BME280;33994;50.998;5.864;2023-03-20T00:24:29;101525.91;;;8.98;78.69
48204;BME280;33994;50.998;5.864;2023-03-20T00:27:34;101516.38;;;9.01;78.50
48204;BME280;33994;50.998;5.864;2023-03-20T00:30:36;101519.84;;;9.00;78.33
48204;BME280;33994;50.998;5.864;2023-03-20T00:33:40;101519.84;;;9.00;78.30
48204;BME280;33994;50.998;5.864;2023-03-20T00:36:43;101526.78;;;8.98;78.04
48204;BME280;33994;50.998;5.864;2023-03-20T00:39:47;101524.16;;;8.94;77.93
48204;BME280;33994;50.998;5.864;2023-03-20T00:42:55;101525.03;;;8.88;77.04
48204;BME280;33994;50.998;5.864;2023-03-20T00:45:59;101521.53;;;8.85;76.87
48204;BME280;33994;50.998;5.864;2023-03-20T00:49:03;101519.78;;;8.82;76.36
48204;BME280;33994;50.998;5.864;2023-03-20T00:52:06;101512.78;;;8.76;76.20
48204;BME280;33994;50.998;5.864;2023-03-20T00:55:09;101511.06;;;8.71;76.46
48204;BME280;33994;50.998;5.864;2023-03-20T00:58:14;101504.09;;;8.67;76.57
48204;BME280;33994;50.998;5.864;2023-03-20T01:01:18;101501.47;;;8.62;76.95
48204;BME280;33994;50.998;5.864;2023-03-20T01:04:21;101484.06;;;8.58;77.41
48204;BME280;33994;50.998;5.864;2023-03-20T01:07:24;101482.31;;;8.56;77.73
48204;BME280;33994;50.998;5.864;2023-03-20T01:10:29;101483.16;;;8.53;78.40
48204;BME280;33994;50.998;5.864;2023-03-20T01:13:37;101468.38;;;8.47;78.82
48204;BME280;33994;50.998;5.864;2023-03-20T01:16:41;101464.03;;;8.43;79.07
48204;BME280;33994;50.998;5.864;2023-03-20T01:19:44;101462.28;;;8.39;79.42
48204;BME280;33994;50.998;5.864;2023-03-20T01:22:48;101461.34;;;8.34;79.42
48204;BME280;33994;50.998;5.864;2023-03-20T01:25:51;101470.00;;;8.27;79.36
48204;BME280;33994;50.998;5.864;2023-03-20T01:28:56;101460.44;;;8.23;79.13
48204;BME280;33994;50.998;5.864;2023-03-20T01:31:59;101467.38;;;8.21;78.86
48204;BME280;33994;50.998;5.864;2023-03-20T01:35:03;101483.88;;;8.17;78.75
48204;BME280;33994;50.998;5.864;2023-03-20T01:38:11;101498.59;;;8.12;78.82
48204;BME280;33994;50.998;5.864;2023-03-20T01:41:15;101509.03;;;8.09;78.78
48204;BME280;33994;50.998;5.864;2023-03-20T01:44:22;101509.88;;;8.05;78.74
48204;BME280;33994;50.998;5.864;2023-03-20T01:47:25;101519.38;;;8.02;78.79
48204;BME280;33994;50.998;5.864;2023-03-20T01:50:30;101488.09;;;7.98;79.17
48204;BME280;33994;50.998;5.864;2023-03-20T01:53:34;101475.91;;;7.95;79.41
48204;BME280;33994;50.998;5.864;2023-03-20T01:56:41;101474.16;;;7.91;79.85
48204;BME280;33994;50.998;5.864;2023-03-20T01:59:50;101486.31;;;7.89;80.41
48204;BME280;33994;50.998;5.864;2023-03-20T02:02:54;101493.25;;;7.87;81.15
48204;BME280;33994;50.998;5.864;2023-03-20T02:05:58;101481.94;;;7.87;81.58
48204;BME280;33994;50.998;5.864;2023-03-20T02:09:02;101474.97;;;7.84;82.04
48204;BME280;33994;50.998;5.864;2023-03-20T02:12:06;101480.16;;;7.79;82.38
48204;BME280;33994;50.998;5.864;2023-03-20T02:15:13;101472.31;;;7.72;83.06
48204;BME280;33994;50.998;5.864;2023-03-20T02:18:16;101480.94;;;7.69;83.21
48204;BME280;33994;50.998;5.864;2023-03-20T02:29:26;101469.59;;;7.55;83.72
48204;BME280;33994;50.998;5.864;2023-03-20T02:33:02;101469.59;;;7.55;84.12
48204;BME280;33994;50.998;5.864;2023-03-20T02:36:42;101460.84;;;7.48;84.49
48204;BME280;33994;50.998;5.864;2023-03-20T02:39:58;101448.69;;;7.49;84.68
48204;BME280;33994;50.998;5.864;2023-03-20T02:43:09;101459.94;;;7.46;84.74
48204;BME280;33994;50.998;5.864;2023-03-20T02:46:25;101473.78;;;7.42;85.36
48204;BME280;33994;50.998;5.864;2023-03-20T02:49:44;101491.97;;;7.39;85.75
48204;BME280;33994;50.998;5.864;2023-03-20T02:52:56;101497.16;;;7.36;85.97
48204;BME280;33994;50.998;5.864;2023-03-20T02:56:11;101491.00;;;7.31;86.48
48204;BME280;33994;50.998;5.864;2023-03-20T02:59:22;101503.13;;;7.26;86.60
48204;BME280;33994;50.998;5.864;2023-03-20T03:02:33;101509.16;;;7.22;87.18
48204;BME280;33994;50.998;5.864;2023-03-20T03:05:42;101505.66;;;7.17;87.29
48204;BME280;33994;50.998;5.864;2023-03-20T03:08:49;101519.50;;;7.16;87.63
48204;BME280;33994;50.998;5.864;2023-03-20T03:12:02;101512.56;;;7.16;87.97
48204;BME280;33994;50.998;5.864;2023-03-20T03:15:13;101507.34;;;7.13;87.99
48204;BME280;33994;50.998;5.864;2023-03-20T03:18:19;101491.75;;;7.13;88.18
48204;BME280;33994;50.998;5.864;2023-03-20T03:21:25;101504.72;;;7.12;88.15
48204;BME280;33994;50.998;5.864;2023-03-20T03:24:34;101489.09;;;7.10;88.31
48204;BME280;33994;50.998;5.864;2023-03-20T03:27:41;101482.13;;;7.07;88.26
48204;BME280;33994;50.998;5.864;2023-03-20T03:30:45;101477.78;;;7.06;87.93
48204;BME280;33994;50.998;5.864;2023-03-20T03:33:51;101476.88;;;7.04;87.59
48204;BME280;33994;50.998;5.864;2023-03-20T03:37:01;101476.03;;;7.02;87.42
48204;BME280;33994;50.998;5.864;2023-03-20T03:40:14;101485.50;;;7.00;87.22
48204;BME280;33994;50.998;5.864;2023-03-20T03:43:26;101488.06;;;6.96;87.11
48204;BME280;33994;50.998;5.864;2023-03-20T03:46:38;101481.09;;;6.92;87.17
48204;BME280;33994;50.998;5.864;2023-03-20T03:49:46;101463.72;;;6.88;87.12
48204;BME280;33994;50.998;5.864;2023-03-20T03:52:53;101458.47;;;6.85;87.60
48204;BME280;33994;50.998;5.864;2023-03-20T03:56:01;101453.28;;;6.83;87.71
48204;BME280;33994;50.998;5.864;2023-03-20T03:59:09;101458.41;;;6.75;88.43
48204;BME280;33994;50.998;5.864;2023-03-20T04:02:15;101456.59;;;6.68;88.83
48204;BME280;33994;50.998;5.864;2023-03-20T04:05:19;101460.00;;;6.66;88.90
48204;BME280;33994;50.998;5.864;2023-03-20T04:08:23;101456.50;;;6.61;89.06
48204;BME280;33994;50.998;5.864;2023-03-20T04:11:26;101458.19;;;6.55;89.17
48204;BME280;33994;50.998;5.864;2023-03-20T04:14:31;101456.38;;;6.48;89.61
48204;BME280;33994;50.998;5.864;2023-03-20T04:17:34;101464.97;;;6.44;89.76
48204;BME280;33994;50.998;5.864;2023-03-20T04:20:37;101477.94;;;6.41;89.76
48204;BME280;33994;50.998;5.864;2023-03-20T04:23:40;101484.81;;;6.39;89.95
48204;BME280;33994;50.998;5.864;2023-03-20T04:26:43;101478.75;;;6.39;89.91
48204;BME280;33994;50.998;5.864;2023-03-20T04:29:48;101471.00;;;6.43;89.99
48204;BME280;33994;50.998;5.864;2023-03-20T04:32:51;101475.34;;;6.43;89.80
48204;BME280;33994;50.998;5.864;2023-03-20T04:35:54;101458.91;;;6.45;89.34
48204;BME280;33994;50.998;5.864;2023-03-20T04:38:57;101458.06;;;6.46;89.31
48204;BME280;33994;50.998;5.864;2023-03-20T04:42:01;101467.53;;;6.41;89.47
48204;BME280;33994;50.998;5.864;2023-03-20T04:45:07;101451.06;;;6.41;89.37
48204;BME280;33994;50.998;5.864;2023-03-20T04:48:10;101453.63;;;6.39;89.35
48204;BME280;33994;50.998;5.864;2023-03-20T04:51:13;101464.06;;;6.41;89.19
48204;BME280;33994;50.998;5.864;2023-03-20T04:54:16;101471.97;;;6.51;88.86
48204;BME280;33994;50.998;5.864;2023-03-20T04:57:19;101467.69;;;6.53;88.81
48204;BME280;33994;50.998;5.864;2023-03-20T05:00:23;101464.16;;;6.48;88.69
48204;BME280;33994;50.998;5.864;2023-03-20T05:03:26;101460.59;;;6.42;88.42
48204;BME280;33994;50.998;5.864;2023-03-20T05:06:30;101456.25;;;6.39;88.66
48204;BME280;33994;50.998;5.864;2023-03-20T05:09:33;101458.84;;;6.39;88.40
48204;BME280;33994;50.998;5.864;2023-03-20T05:12:36;101453.63;;;6.39;88.26
48204;BME280;33994;50.998;5.864;2023-03-20T05:15:40;101444.13;;;6.40;88.29
48204;BME280;33994;50.998;5.864;2023-03-20T05:18:45;101447.56;;;6.39;88.51
48204;BME280;33994;50.998;5.864;2023-03-20T05:21:47;101450.13;;;6.34;88.49
48204;BME280;33994;50.998;5.864;2023-03-20T05:24:51;101446.66;;;6.33;88.54
48204;BME280;33994;50.998;5.864;2023-03-20T05:27:54;101456.13;;;6.30;88.51
48204;BME280;33994;50.998;5.864;2023-03-20T05:30:59;101457.00;;;6.29;88.48
48204;BME280;33994;50.998;5.864;2023-03-20T05:34:02;101460.47;;;6.29;88.72
48204;BME280;33994;50.998;5.864;2023-03-20T05:37:05;101455.28;;;6.29;88.52
48204;BME280;33994;50.998;5.864;2023-03-20T05:40:11;101455.28;;;6.31;88.54
48204;BME280;33994;50.998;5.864;2023-03-20T05:43:15;101457.88;;;6.31;88.09
48204;BME280;33994;50.998;5.864;2023-03-20T05:46:19;101463.06;;;6.29;88.42
48204;BME280;33994;50.998;5.864;2023-03-20T05:49:22;101457.88;;;6.29;88.13
48204;BME280;33994;50.998;5.864;2023-03-20T05:52:25;101451.75;;;6.26;88.35
48204;BME280;33994;50.998;5.864;2023-03-20T05:55:29;101447.44;;;6.26;88.39
48204;BME280;33994;50.998;5.864;2023-03-20T05:58:32;101438.81;;;6.29;88.46
48204;BME280;33994;50.998;5.864;2023-03-20T06:01:36;101452.63;;;6.26;88.54
48204;BME280;33994;50.998;5.864;2023-03-20T06:04:39;101443.06;;;6.22;88.63
48204;BME280;33994;50.998;5.864;2023-03-20T06:07:42;101450.91;;;6.27;88.45
48204;BME280;33994;50.998;5.864;2023-03-20T06:10:46;101446.63;;;6.32;88.58
48204;BME280;33994;50.998;5.864;2023-03-20T06:13:51;101440.59;;;6.35;88.31
48204;BME280;33994;50.998;5.864;2023-03-20T06:16:56;101442.31;;;6.34;88.09
48204;BME280;33994;50.998;5.864;2023-03-20T06:19:59;101439.72;;;6.34;88.39
48204;BME280;33994;50.998;5.864;2023-03-20T06:23:02;101447.56;;;6.40;88.10
48204;BME280;33994;50.998;5.864;2023-03-20T06:26:06;101451.13;;;6.45;87.95
48204;BME280;33994;50.998;5.864;2023-03-20T06:29:09;101448.59;;;6.51;87.69
48204;BME280;33994;50.998;5.864;2023-03-20T06:32:14;101455.59;;;6.55;87.67
48204;BME280;33994;50.998;5.864;2023-03-20T06:35:17;101456.53;;;6.64;87.05
48204;BME280;33994;50.998;5.864;2023-03-20T06:38:20;101455.69;;;6.65;86.76
48204;BME280;33994;50.998;5.864;2023-03-20T06:41:24;101463.53;;;6.69;86.72
48204;BME280;33994;50.998;5.864;2023-03-20T06:44:27;101473.13;;;6.75;86.47
48204;BME280;33994;50.998;5.864;2023-03-20T06:47:31;101474.91;;;6.79;86.00
48204;BME280;33994;50.998;5.864;2023-03-20T06:50:34;101473.22;;;6.84;85.93
48204;BME280;33994;50.998;5.864;2023-03-20T06:53:37;101472.41;;;6.88;85.40
48204;BME280;33994;50.998;5.864;2023-03-20T06:56:41;101476.78;;;6.92;85.45
48204;BME280;33994;50.998;5.864;2023-03-20T06:59:44;101475.97;;;7.01;84.77
48204;BME280;33994;50.998;5.864;2023-03-20T07:02:48;101479.53;;;7.07;84.24
48204;BME280;33994;50.998;5.864;2023-03-20T07:05:51;101482.16;;;7.11;83.86
48204;BME280;33994;50.998;5.864;2023-03-20T07:08:54;101490.88;;;7.16;83.51
48204;BME280;33994;50.998;5.864;2023-03-20T07:14:24;101493.59;;;7.26;82.90
48204;BME280;33994;50.998;5.864;2023-03-20T07:17:28;101499.72;;;7.33;82.54
48204;BME280;33994;50.998;5.864;2023-03-20T07:20:31;101498.81;;;7.31;82.47
48204;BME280;33994;50.998;5.864;2023-03-20T07:23:34;101505.78;;;7.34;81.87
48204;BME280;33994;50.998;5.864;2023-03-20T07:26:37;101511.88;;;7.34;81.38
48204;BME280;33994;50.998;5.864;2023-03-20T07:29:42;101507.53;;;7.33;80.75
48204;BME280;33994;50.998;5.864;2023-03-20T07:32:45;101513.59;;;7.35;80.53
48204;BME280;33994;50.998;5.864;2023-03-20T07:35:51;101517.13;;;7.37;80.06
48204;BME280;33994;50.998;5.864;2023-03-20T07:38:54;101526.72;;;7.40;80.09
48204;BME280;33994;50.998;5.864;2023-03-20T07:41:57;101521.50;;;7.41;79.69
48204;BME280;33994;50.998;5.864;2023-03-20T07:45:02;101525.91;;;7.48;79.27
48204;BME280;33994;50.998;5.864;2023-03-20T07:48:05;101527.69;;;7.52;78.92
48204;BME280;33994;50.998;5.864;2023-03-20T07:51:08;101523.38;;;7.56;78.61
48204;BME280;33994;50.998;5.864;2023-03-20T07:54:11;101524.31;;;7.63;78.34
48204;BME280;33994;50.998;5.864;2023-03-20T07:57:14;101530.41;;;7.68;77.63
48204;BME280;33994;50.998;5.864;2023-03-20T08:00:19;101530.47;;;7.75;77.23
48204;BME280;33994;50.998;5.864;2023-03-20T08:03:22;101533.16;;;7.85;76.59
48204;BME280;33994;50.998;5.864;2023-03-20T08:06:25;101541.00;;;7.91;75.44
48204;BME280;33994;50.998;5.864;2023-03-20T08:09:28;101543.66;;;7.95;74.78
48204;BME280;33994;50.998;5.864;2023-03-20T08:12:31;101545.41;;;7.99;74.52
48204;BME280;33994;50.998;5.864;2023-03-20T08:15:36;101547.19;;;8.02;73.86
48204;BME280;33994;50.998;5.864;2023-03-20T08:18:39;101548.94;;;8.05;73.63
48204;BME280;33994;50.998;5.864;2023-03-20T08:21:42;101546.34;;;8.11;73.12
48204;BME280;33994;50.998;5.864;2023-03-20T08:24:46;101547.28;;;8.16;72.36
48204;BME280;33994;50.998;5.864;2023-03-20T08:27:49;101548.13;;;8.15;71.80
48204;BME280;33994;50.998;5.864;2023-03-20T08:30:53;101548.97;;;8.11;71.70
48204;BME280;33994;50.998;5.864;2023-03-20T08:33:57;101547.22;;;8.11;71.95
48204;BME280;33994;50.998;5.864;2023-03-20T08:37:02;101551.59;;;8.12;71.78
48204;BME280;33994;50.998;5.864;2023-03-20T08:40:05;101545.50;;;8.15;71.83
48204;BME280;33994;50.998;5.864;2023-03-20T08:43:09;101538.56;;;8.14;71.14
48204;BME280;33994;50.998;5.864;2023-03-20T08:46:14;101548.09;;;8.10;70.95
48204;BME280;33994;50.998;5.864;2023-03-20T08:49:17;101549.84;;;8.11;71.20
48204;BME280;33994;50.998;5.864;2023-03-20T08:52:20;101544.66;;;8.13;71.21
48204;BME280;33994;50.998;5.864;2023-03-20T08:55:22;101550.69;;;8.12;70.95
48204;BME280;33994;50.998;5.864;2023-03-20T08:58:26;101548.13;;;8.13;70.92
48204;BME280;33994;50.998;5.864;2023-03-20T09:01:30;101557.69;;;8.19;70.91
48204;BME280;33994;50.998;5.864;2023-03-20T09:04:33;101567.31;;;8.24;71.07
48204;BME280;33994;50.998;5.864;2023-03-20T09:07:36;101556.03;;;8.30;70.68
48204;BME280;33994;50.998;5.864;2023-03-20T09:10:40;101557.78;;;8.28;70.32
48204;BME280;33994;50.998;5.864;2023-03-20T09:13:42;101559.50;;;8.31;70.15
48204;BME280;33994;50.998;5.864;2023-03-20T09:16:47;101558.66;;;8.28;69.74
48204;BME280;33994;50.998;5.864;2023-03-20T09:19:50;101558.66;;;8.28;69.60
48204;BME280;33994;50.998;5.864;2023-03-20T09:22:55;101552.53;;;8.26;69.89
48204;BME280;33994;50.998;5.864;2023-03-20T09:25:58;101556.00;;;8.25;70.02
48204;BME280;33994;50.998;5.864;2023-03-20T09:29:02;101551.66;;;8.26;70.27
48204;BME280;33994;50.998;5.864;2023-03-20T09:32:06;101559.50;;;8.26;70.20
48204;BME280;33994;50.998;5.864;2023-03-20T09:35:12;101560.34;;;8.25;70.39
48204;BME280;33994;50.998;5.864;2023-03-20T09:38:14;101559.50;;;8.26;70.68
48204;BME280;33994;50.998;5.864;2023-03-20T09:41:19;101563.00;;;8.34;70.81
48204;BME280;33994;50.998;5.864;2023-03-20T09:44:36;101562.13;;;8.29;70.78
48204;BME280;33994;50.998;5.864;2023-03-20T09:47:50;101557.78;;;8.33;71.22
48204;BME280;33994;50.998;5.864;2023-03-20T09:51:01;101571.75;;;8.39;71.14
48204;BME280;33994;50.998;5.864;2023-03-20T09:54:10;101565.69;;;8.43;70.96
48204;BME280;33994;50.998;5.864;2023-03-20T09:57:22;101562.22;;;8.47;70.96
48204;BME280;33994;50.998;5.864;2023-03-20T10:00:28;101568.31;;;8.48;70.80
48204;BME280;33994;50.998;5.864;2023-03-20T10:03:42;101558.72;;;8.42;70.52
48204;BME280;33994;50.998;5.864;2023-03-20T10:06:45;101566.53;;;8.42;70.75
48204;BME280;33994;50.998;5.864;2023-03-20T10:09:48;101566.53;;;8.39;70.70
48204;BME280;33994;50.998;5.864;2023-03-20T10:13:03;101564.78;;;8.35;70.69
48204;BME280;33994;50.998;5.864;2023-03-20T10:16:16;101559.53;;;8.34;70.68
48204;BME280;33994;50.998;5.864;2023-03-20T10:19:26;101566.53;;;8.42;71.35
48204;BME280;33994;50.998;5.864;2023-03-20T10:22:32;101556.19;;;8.61;71.15
48204;BME280;33994;50.998;5.864;2023-03-20T10:25:39;101559.63;;;8.53;71.43
48204;BME280;33994;50.998;5.864;2023-03-20T10:28:49;101563.94;;;8.45;72.54
48204;BME280;33994;50.998;5.864;2023-03-20T10:31:56;101563.03;;;8.37;73.14
48204;BME280;33994;50.998;5.864;2023-03-20T10:35:17;101564.72;;;8.31;74.36
48204;BME280;33994;50.998;5.864;2023-03-20T10:38:31;101569.97;;;8.34;75.51
48204;BME280;33994;50.998;5.864;2023-03-20T10:41:42;101564.78;;;8.37;75.54
48204;BME280;33994;50.998;5.864;2023-03-20T10:44:54;101563.03;;;8.37;75.27
48204;BME280;33994;50.998;5.864;2023-03-20T10:48:02;101550.91;;;8.39;75.41
48204;BME280;33994;50.998;5.864;2023-03-20T10:51:12;101550.06;;;8.49;75.08
48204;BME280;33994;50.998;5.864;2023-03-20T10:54:22;101539.66;;;8.52;74.75
48204;BME280;33994;50.998;5.864;2023-03-20T10:57:29;101545.78;;;8.61;74.92
48204;BME280;33994;50.998;5.864;2023-03-20T11:00:33;101544.06;;;8.69;75.20
48204;BME280;33994;50.998;5.864;2023-03-20T11:03:36;101535.41;;;8.70;75.02
48204;BME280;33994;50.998;5.864;2023-03-20T11:06:46;101530.19;;;8.73;74.28
48204;BME280;33994;50.998;5.864;2023-03-20T11:10:07;101540.56;;;8.61;73.53
48204;BME280;33994;50.998;5.864;2023-03-20T11:13:15;101537.09;;;8.59;73.33
48204;BME280;33994;50.998;5.864;2023-03-20T11:16:20;101526.69;;;8.62;73.65
48204;BME280;33994;50.998;5.864;2023-03-20T11:19:24;101528.41;;;8.63;73.86
48204;BME280;33994;50.998;5.864;2023-03-20T11:22:29;101523.19;;;8.64;73.85
48204;BME280;33994;50.998;5.864;2023-03-20T11:25:34;101511.03;;;8.68;73.87
48204;BME280;33994;50.998;5.864;2023-03-20T11:28:39;101504.94;;;8.63;74.14
48204;BME280;33994;50.998;5.864;2023-03-20T11:31:43;101509.31;;;8.70;74.41
48204;BME280;33994;50.998;5.864;2023-03-20T11:34:47;101504.13;;;8.74;74.92
48204;BME280;33994;50.998;5.864;2023-03-20T11:37:53;101499.75;;;8.70;75.32
48204;BME280;33994;50.998;5.864;2023-03-20T11:40:57;101493.66;;;8.70;75.17
48204;BME280;33994;50.998;5.864;2023-03-20T11:44:00;101488.47;;;8.76;75.12
48204;BME280;33994;50.998;5.864;2023-03-20T11:47:05;101493.72;;;8.85;74.76
48204;BME280;33994;50.998;5.864;2023-03-20T11:50:24;101485.88;;;8.84;74.19
48204;BME280;33994;50.998;5.864;2023-03-20T11:53:32;101480.69;;;8.93;74.25
48204;BME280;33994;50.998;5.864;2023-03-20T11:56:37;101478.09;;;9.00;73.89
48204;BME280;33994;50.998;5.864;2023-03-20T11:59:40;101480.72;;;9.10;73.41
48204;BME280;33994;50.998;5.864;2023-03-20T12:02:43;101468.53;;;9.15;72.91
48204;BME280;33994;50.998;5.864;2023-03-20T12:05:46;101468.56;;;9.21;72.64
48204;BME280;33994;50.998;5.864;2023-03-20T12:08:55;101472.06;;;9.29;72.27
48204;BME280;33994;50.998;5.864;2023-03-20T12:12:01;101460.75;;;9.36;71.86
48204;BME280;33994;50.998;5.864;2023-03-20T12:15:14;101457.31;;;9.34;71.47
48204;BME280;33994;50.998;5.864;2023-03-20T12:18:24;101455.53;;;9.36;71.38
48204;BME280;33994;50.998;5.864;2023-03-20T12:21:33;101448.59;;;9.43;71.05
48204;BME280;33994;50.998;5.864;2023-03-20T12:24:42;101433.78;;;9.46;70.76
48204;BME280;33994;50.998;5.864;2023-03-20T12:27:53;101432.91;;;9.47;70.42
48204;BME280;33994;50.998;5.864;2023-03-20T12:31:04;101434.66;;;9.52;70.21
48204;BME280;33994;50.998;5.864;2023-03-20T12:34:13;101439.00;;;9.65;70.29
48204;BME280;33994;50.998;5.864;2023-03-20T12:37:18;101439.00;;;9.72;69.88
48204;BME280;33994;50.998;5.864;2023-03-20T12:40:29;101432.03;;;9.73;69.39
48204;BME280;33994;50.998;5.864;2023-03-20T12:43:43;101439.84;;;9.81;69.07
48204;BME280;33994;50.998;5.864;2023-03-20T12:46:57;101434.59;;;9.88;68.95
48204;BME280;33994;50.998;5.864;2023-03-20T12:50:09;101433.69;;;9.94;68.63
48204;BME280;33994;50.998;5.864;2023-03-20T12:53:33;101425.00;;;9.93;68.59
48204;BME280;33994;50.998;5.864;2023-03-20T12:56:55;101431.97;;;9.93;68.20
48204;BME280;33994;50.998;5.864;2023-03-20T13:00:13;101432.00;;;9.88;68.21
48204;BME280;33994;50.998;5.864;2023-03-20T13:03:26;101426.75;;;9.87;67.90
48204;BME280;33994;50.998;5.864;2023-03-20T13:06:40;101424.16;;;9.84;68.48
48204;BME280;33994;50.998;5.864;2023-03-20T13:10:02;101415.44;;;9.82;68.44
48204;BME280;33994;50.998;5.864;2023-03-20T13:13:17;101420.66;;;9.86;68.42
48204;BME280;33994;50.998;5.864;2023-03-20T13:16:29;101425.88;;;9.89;68.54
48204;BME280;33994;50.998;5.864;2023-03-20T13:19:41;101418.91;;;9.87;68.53
48204;BME280;33994;50.998;5.864;2023-03-20T13:22:56;101418.94;;;9.88;68.30
48204;BME280;33994;50.998;5.864;2023-03-20T13:26:09;101413.69;;;9.88;68.53
48204;BME280;33994;50.998;5.864;2023-03-20T13:29:18;101405.84;;;9.87;68.50
48204;BME280;33994;50.998;5.864;2023-03-20T13:32:33;101401.47;;;9.87;68.66
48204;BME280;33994;50.998;5.864;2023-03-20T13:35:45;101403.25;;;9.91;68.96
48204;BME280;33994;50.998;5.864;2023-03-20T13:38:57;101393.63;;;9.93;69.01
48204;BME280;33994;50.998;5.864;2023-03-20T13:42:07;101398.88;;;9.93;69.28
48204;BME280;33994;50.998;5.864;2023-03-20T13:45:23;101390.16;;;9.90;69.12
48204;BME280;33994;50.998;5.864;2023-03-20T13:48:30;101399.75;;;9.92;69.47
48204;BME280;33994;50.998;5.864;2023-03-20T13:51:38;101390.16;;;9.93;69.55
48204;BME280;33994;50.998;5.864;2023-03-20T13:55:00;101385.81;;;9.90;69.84
48204;BME280;33994;50.998;5.864;2023-03-20T13:58:20;101384.09;;;9.85;69.75
48204;BME280;33994;50.998;5.864;2023-03-20T14:01:37;101384.06;;;9.86;69.72
48204;BME280;33994;50.998;5.864;2023-03-20T14:04:41;101375.34;;;9.87;69.71
48204;BME280;33994;50.998;5.864;2023-03-20T14:07:46;101373.63;;;9.95;69.54
48204;BME280;33994;50.998;5.864;2023-03-20T14:10:54;101372.72;;;9.96;69.41
48204;BME280;33994;50.998;5.864;2023-03-20T14:14:03;101373.56;;;10.05;69.06
48204;BME280;33994;50.998;5.864;2023-03-20T14:17:15;101373.53;;;10.09;68.88
48204;BME280;33994;50.998;5.864;2023-03-20T14:20:26;101371.78;;;10.14;68.80
48204;BME280;33994;50.998;5.864;2023-03-20T14:23:34;101365.69;;;10.15;68.63
48204;BME280;33994;50.998;5.864;2023-03-20T14:26:38;101373.50;;;10.17;68.62
48204;BME280;33994;50.998;5.864;2023-03-20T14:29:41;101367.41;;;10.18;68.49
48204;BME280;33994;50.998;5.864;2023-03-20T14:32:58;101369.16;;;10.19;68.37
48204;BME280;33994;50.998;5.864;2023-03-20T14:36:20;101364.75;;;10.24;68.48
48204;BME280;33994;50.998;5.864;2023-03-20T14:39:39;101357.81;;;10.26;68.17
48204;BME280;33994;50.998;5.864;2023-03-20T14:42:51;101360.41;;;10.25;67.75
48204;BME280;33994;50.998;5.864;2023-03-20T14:45:59;101363.88;;;10.27;67.99
48204;BME280;33994;50.998;5.864;2023-03-20T14:49:14;101354.31;;;10.24;67.35
48204;BME280;33994;50.998;5.864;2023-03-20T14:52:39;101345.56;;;10.25;67.16
48204;BME280;33994;50.998;5.864;2023-03-20T14:56:09;101340.34;;;10.25;67.24
48204;BME280;33994;50.998;5.864;2023-03-20T14:59:13;101341.25;;;10.26;67.57
48204;BME280;33994;50.998;5.864;2023-03-20T15:02:24;101332.50;;;10.28;66.99
48204;BME280;33994;50.998;5.864;2023-03-20T15:05:32;101338.63;;;10.27;66.88
48204;BME280;33994;50.998;5.864;2023-03-20T15:08:40;101332.50;;;10.25;67.20
48204;BME280;33994;50.998;5.864;2023-03-20T15:11:45;101320.31;;;10.24;67.67
48204;BME280;33994;50.998;5.864;2023-03-20T15:14:52;101314.22;;;10.25;68.07
48204;BME280;33994;50.998;5.864;2023-03-20T15:18:03;101315.97;;;10.25;68.14
48204;BME280;33994;50.998;5.864;2023-03-20T15:21:13;101315.97;;;10.26;68.52
48204;BME280;33994;50.998;5.864;2023-03-20T15:24:18;101320.34;;;10.22;68.76
48204;BME280;33994;50.998;5.864;2023-03-20T15:27:23;101321.22;;;10.17;69.33
48204;BME280;33994;50.998;5.864;2023-03-20T15:30:29;101322.13;;;10.10;69.59
48204;BME280;33994;50.998;5.864;2023-03-20T15:33:37;101320.44;;;10.07;69.82
48204;BME280;33994;50.998;5.864;2023-03-20T15:36:42;101314.31;;;10.08;69.90
48204;BME280;33994;50.998;5.864;2023-03-20T15:39:47;101319.53;;;10.10;70.28
48204;BME280;33994;50.998;5.864;2023-03-20T15:42:55;101318.66;;;10.11;71.15
48204;BME280;33994;50.998;5.864;2023-03-20T15:45:58;101313.44;;;10.11;71.54
48204;BME280;33994;50.998;5.864;2023-03-20T15:49:03;101314.28;;;10.10;72.25
48204;BME280;33994;50.998;5.864;2023-03-20T15:52:13;101310.00;;;9.98;73.59
48204;BME280;33994;50.998;5.864;2023-03-20T15:55:22;101308.28;;;9.97;73.85
48204;BME280;33994;50.998;5.864;2023-03-20T15:58:26;101310.91;;;9.95;74.74
48204;BME280;33994;50.998;5.864;2023-03-20T16:01:31;101303.06;;;9.94;76.10
48204;BME280;33994;50.998;5.864;2023-03-20T16:04:34;101306.56;;;9.87;77.18
48204;BME280;33994;50.998;5.864;2023-03-20T16:07:39;101302.25;;;9.80;78.06
48204;BME280;33994;50.998;5.864;2023-03-20T16:10:43;101305.75;;;9.71;79.44
48204;BME280;33994;50.998;5.864;2023-03-20T16:13:47;101300.53;;;9.68;80.02
48204;BME280;33994;50.998;5.864;2023-03-20T16:16:53;101296.22;;;9.64;80.81
48204;BME280;33994;50.998;5.864;2023-03-20T16:19:57;101303.19;;;9.60;81.70
48204;BME280;33994;50.998;5.864;2023-03-20T16:23:04;101290.13;;;9.59;82.60
48204;BME280;33994;50.998;5.864;2023-03-20T16:26:09;101291.03;;;9.55;84.17
48204;BME280;33994;50.998;5.864;2023-03-20T16:29:16;101289.31;;;9.54;83.04
48204;BME280;33994;50.998;5.864;2023-03-20T16:32:24;101286.69;;;9.51;83.41
48204;BME280;33994;50.998;5.864;2023-03-20T16:35:35;101290.19;;;9.46;83.85
48204;BME280;33994;50.998;5.864;2023-03-20T16:38:53;101284.97;;;9.49;84.66
48204;BME280;33994;50.998;5.864;2023-03-20T16:42:08;101280.59;;;9.52;84.17